sensor_id;sensor_type;location;lat;lon;timestamp;temperature;humidity
16321;DHT22;8269;50.990;4.494;2022-12-20T00:02:17;11.70;99.90
16321;DHT22;8269;50.990;4.494;2022-12-20T00:04:43;11.70;99.90
16321;DHT22;8269;50.990;4.494;2022-12-20T00:07:09;11.70;99.90
16321;DHT22;8269;50.990;4.494;2022-12-20T00:09:35;11.70;99.90
16321;DHT22;8269;50.990;4.494;2022-12-20T00:12:01;11.80;99.90
16321;DHT22;8269;50.990;4.494;2022-12-20T00:14:32;11.70;99.90
16321;DHT22;8269;50.990;4.494;2022-12-20T00:16:58;11.70;99.90
16321;DHT22;8269;50.990;4.494;2022-12-20T00:19:24;11.60;99.90
16321;DHT22;8269;50.990;4.494;2022-12-20T00:21:59;11.60;99.90
16321;DHT22;8269;50.990;4.494;2022-12-20T00:24:25;11.60;99.90
16321;DHT22;8269;50.990;4.494;2022-12-20T00:26:52;11.40;99.90
16321;DHT22;8269;50.990;4.494;2022-12-20T00:29:18;11.50;99.90
16321;DHT22;8269;50.990;4.494;2022-12-20T00:31:43;11.40;99.90
16321;DHT22;8269;50.990;4.494;2022-12-20T00:34:09;11.60;99.90
16321;DHT22;8269;50.990;4.494;2022-12-20T00:36:35;11.40;99.90
16321;DHT22;8269;50.990;4.494;2022-12-20T00:39:01;11.40;99.90
16321;DHT22;8269;50.990;4.494;2022-12-20T00:41:29;11.30;99.90
16321;DHT22;8269;50.990;4.494;2022-12-20T00:43:56;11.30;99.90
16321;DHT22;8269;50.990;4.494;2022-12-20T00:46:24;11.10;99.90
16321;DHT22;8269;50.990;4.494;2022-12-20T00:48:50;11.10;99.90
16321;DHT22;8269;50.990;4.494;2022-12-20T00:51:25;11.00;99.90
16321;DHT22;8269;50.990;4.494;2022-12-20T00:53:54;10.90;99.90
16321;DHT22;8269;50.990;4.494;2022-12-20T00:56:22;10.70;99.90
16321;DHT22;8269;50.990;4.494;2022-12-20T00:58:48;10.90;99.90
16321;DHT22;8269;50.990;4.494;2022-12-20T01:01:29;10.70;99.90
16321;DHT22;8269;50.990;4.494;2022-12-20T01:03:55;10.90;99.90
16321;DHT22;8269;50.990;4.494;2022-12-20T01:06:21;10.90;99.90
16321;DHT22;8269;50.990;4.494;2022-12-20T01:08:50;10.90;99.90
16321;DHT22;8269;50.990;4.494;2022-12-20T01:11:34;11.00;99.90
16321;DHT22;8269;50.990;4.494;2022-12-20T01:14:08;10.90;99.90
16321;DHT22;8269;50.990;4.494;2022-12-20T01:16:40;11.00;99.90
16321;DHT22;8269;50.990;4.494;2022-12-20T01:19:09;10.90;99.90
16321;DHT22;8269;50.990;4.494;2022-12-20T01:21:35;10.90;99.90
16321;DHT22;8269;50.990;4.494;2022-12-20T01:24:02;10.80;99.90
16321;DHT22;8269;50.990;4.494;2022-12-20T01:26:28;10.70;99.90
16321;DHT22;8269;50.990;4.494;2022-12-20T01:29:03;10.70;99.90
16321;DHT22;8269;50.990;4.494;2022-12-20T01:31:29;10.80;99.90
16321;DHT22;8269;50.990;4.494;2022-12-20T01:33:56;10.50;99.90
16321;DHT22;8269;50.990;4.494;2022-12-20T01:36:26;10.50;99.90
16321;DHT22;8269;50.990;4.494;2022-12-20T01:41:58;10.60;99.90
16321;DHT22;8269;50.990;4.494;2022-12-20T01:46:51;11.00;99.90
16321;DHT22;8269;50.990;4.494;2022-12-20T01:49:33;10.70;99.90
16321;DHT22;8269;50.990;4.494;2022-12-20T01:52:08;10.70;99.90
16321;DHT22;8269;50.990;4.494;2022-12-20T01:55:03;10.70;99.90
16321;DHT22;8269;50.990;4.494;2022-12-20T02:00:19;10.80;99.90
16321;DHT22;8269;50.990;4.494;2022-12-20T02:02:47;10.60;99.90
16321;DHT22;8269;50.990;4.494;2022-12-20T02:05:23;10.80;99.90
16321;DHT22;8269;50.990;4.494;2022-12-20T02:07:54;10.70;99.90
16321;DHT22;8269;50.990;4.494;2022-12-20T02:10:23;10.70;99.90
16321;DHT22;8269;50.990;4.494;2022-12-20T02:12:58;10.80;99.90
16321;DHT22;8269;50.990;4.494;2022-12-20T02:15:46;10.50;99.90
16321;DHT22;8269;50.990;4.494;2022-12-20T02:18:28;10.80;99.90
16321;DHT22;8269;50.990;4.494;2022-12-20T02:21:13;10.80;99.90
16321;DHT22;8269;50.990;4.494;2022-12-20T02:29:35;10.80;99.90
16321;DHT22;8269;50.990;4.494;2022-12-20T02:32:25;10.80;99.90
16321;DHT22;8269;50.990;4.494;2022-12-20T02:34:56;10.90;99.90
16321;DHT22;8269;50.990;4.494;2022-12-20T02:37:21;10.90;99.90
16321;DHT22;8269;50.990;4.494;2022-12-20T02:39:48;10.90;99.90
16321;DHT22;8269;50.990;4.494;2022-12-20T02:42:24;10.90;99.90
16321;DHT22;8269;50.990;4.494;2022-12-20T02:45:02;10.90;99.90
16321;DHT22;8269;50.990;4.494;2022-12-20T02:50:40;11.10;99.90
16321;DHT22;8269;50.990;4.494;2022-12-20T02:53:08;11.00;99.90
16321;DHT22;8269;50.990;4.494;2022-12-20T02:55:45;10.90;99.90
16321;DHT22;8269;50.990;4.494;2022-12-20T02:58:25;11.00;99.90
16321;DHT22;8269;50.990;4.494;2022-12-20T03:00:55;11.10;99.90
16321;DHT22;8269;50.990;4.494;2022-12-20T03:03:26;11.00;99.90
16321;DHT22;8269;50.990;4.494;2022-12-20T03:05:57;11.10;99.90
16321;DHT22;8269;50.990;4.494;2022-12-20T03:08:25;11.10;99.90
16321;DHT22;8269;50.990;4.494;2022-12-20T03:10:55;11.10;99.90
16321;DHT22;8269;50.990;4.494;2022-12-20T03:13:23;11.10;99.90
16321;DHT22;8269;50.990;4.494;2022-12-20T03:15:50;11.10;99.90
16321;DHT22;8269;50.990;4.494;2022-12-20T03:18:16;11.20;99.90
16321;DHT22;8269;50.990;4.494;2022-12-20T03:20:42;11.20;99.90
16321;DHT22;8269;50.990;4.494;2022-12-20T03:23:08;11.20;99.90
16321;DHT22;8269;50.990;4.494;2022-12-20T03:25:34;11.20;99.90
16321;DHT22;8269;50.990;4.494;2022-12-20T03:28:02;11.30;99.90
16321;DHT22;8269;50.990;4.494;2022-12-20T03:30:27;11.20;99.90
16321;DHT22;8269;50.990;4.494;2022-12-20T03:32:55;11.30;99.90
16321;DHT22;8269;50.990;4.494;2022-12-20T03:35:21;11.10;99.90
16321;DHT22;8269;50.990;4.494;2022-12-20T03:37:47;11.30;99.90
16321;DHT22;8269;50.990;4.494;2022-12-20T03:40:14;11.30;99.90
16321;DHT22;8269;50.990;4.494;2022-12-20T03:42:43;11.30;99.90
16321;DHT22;8269;50.990;4.494;2022-12-20T03:45:09;11.30;99.90
16321;DHT22;8269;50.990;4.494;2022-12-20T03:47:35;11.30;99.90
16321;DHT22;8269;50.990;4.494;2022-12-20T03:50:04;11.20;99.90
16321;DHT22;8269;50.990;4.494;2022-12-20T03:52:31;11.20;99.90
16321;DHT22;8269;50.990;4.494;2022-12-20T03:54:57;11.30;99.90
16321;DHT22;8269;50.990;4.494;2022-12-20T03:57:23;11.20;99.90
16321;DHT22;8269;50.990;4.494;2022-12-20T03:59:48;11.30;99.90
16321;DHT22;8269;50.990;4.494;2022-12-20T04:02:14;11.10;99.90
16321;DHT22;8269;50.990;4.494;2022-12-20T04:04:40;11.50;99.90
16321;DHT22;8269;50.990;4.494;2022-12-20T04:07:06;11.10;99.90
16321;DHT22;8269;50.990;4.494;2022-12-20T04:09:32;11.10;99.90
16321;DHT22;8269;50.990;4.494;2022-12-20T04:11:57;11.50;99.90
16321;DHT22;8269;50.990;4.494;2022-12-20T04:14:23;11.20;99.90
16321;DHT22;8269;50.990;4.494;2022-12-20T04:16:49;11.20;99.90
16321;DHT22;8269;50.990;4.494;2022-12-20T04:19:14;11.20;99.90
16321;DHT22;8269;50.990;4.494;2022-12-20T04:21:40;11.20;99.90
16321;DHT22;8269;50.990;4.494;2022-12-20T04:24:10;11.20;99.90
16321;DHT22;8269;50.990;4.494;2022-12-20T04:26:45;11.10;99.90
16321;DHT22;8269;50.990;4.494;2022-12-20T04:29:14;11.10;99.90
16321;DHT22;8269;50.990;4.494;2022-12-20T04:31:40;11.00;99.90
16321;DHT22;8269;50.990;4.494;2022-12-20T04:34:06;11.00;99.90
16321;DHT22;8269;50.990;4.494;2022-12-20T04:36:32;11.10;99.90
16321;DHT22;8269;50.990;4.494;2022-12-20T04:38:57;11.00;99.90
16321;DHT22;8269;50.990;4.494;2022-12-20T04:41:23;11.60;99.90
16321;DHT22;8269;50.990;4.494;2022-12-20T04:43:56;10.90;99.90
16321;DHT22;8269;50.990;4.494;2022-12-20T04:46:24;11.00;99.90
16321;DHT22;8269;50.990;4.494;2022-12-20T04:48:51;10.80;99.90
16321;DHT22;8269;50.990;4.494;2022-12-20T04:51:23;10.80;99.90
16321;DHT22;8269;50.990;4.494;2022-12-20T04:53:49;10.70;99.90
16321;DHT22;8269;50.990;4.494;2022-12-20T04:56:23;10.80;99.90
16321;DHT22;8269;50.990;4.494;2022-12-20T04:58:51;10.70;99.90
16321;DHT22;8269;50.990;4.494;2022-12-20T05:01:35;10.70;99.90
16321;DHT22;8269;50.990;4.494;2022-12-20T05:04:04;10.60;99.90
16321;DHT22;8269;50.990;4.494;2022-12-20T05:06:34;10.70;99.90
16321;DHT22;8269;50.990;4.494;2022-12-20T05:09:00;10.70;99.90
16321;DHT22;8269;50.990;4.494;2022-12-20T05:11:49;10.80;99.90
16321;DHT22;8269;50.990;4.494;2022-12-20T05:14:14;10.90;99.90
16321;DHT22;8269;50.990;4.494;2022-12-20T05:16:41;10.90;99.90
16321;DHT22;8269;50.990;4.494;2022-12-20T05:19:10;10.90;99.90
16321;DHT22;8269;50.990;4.494;2022-12-20T05:21:35;10.90;99.90
16321;DHT22;8269;50.990;4.494;2022-12-20T05:24:19;10.90;99.90
16321;DHT22;8269;50.990;4.494;2022-12-20T05:27:20;10.90;99.90
16321;DHT22;8269;50.990;4.494;2022-12-20T05:29:46;11.10;99.90
16321;DHT22;8269;50.990;4.494;2022-12-20T05:32:13;10.90;99.90
16321;DHT22;8269;50.990;4.494;2022-12-20T05:34:42;10.80;99.90
16321;DHT22;8269;50.990;4.494;2022-12-20T05:37:07;10.80;99.90
16321;DHT22;8269;50.990;4.494;2022-12-20T05:39:33;10.80;99.90
16321;DHT22;8269;50.990;4.494;2022-12-20T05:41:59;10.70;99.90
16321;DHT22;8269;50.990;4.494;2022-12-20T05:44:25;10.70;99.90
16321;DHT22;8269;50.990;4.494;2022-12-20T05:46:52;10.50;99.90
16321;DHT22;8269;50.990;4.494;2022-12-20T05:49:19;10.70;99.90
16321;DHT22;8269;50.990;4.494;2022-12-20T05:51:45;10.60;99.90
16321;DHT22;8269;50.990;4.494;2022-12-20T05:54:14;10.70;99.90
16321;DHT22;8269;50.990;4.494;2022-12-20T05:56:42;10.50;99.90
16321;DHT22;8269;50.990;4.494;2022-12-20T05:59:07;10.70;99.90
16321;DHT22;8269;50.990;4.494;2022-12-20T06:01:34;11.00;99.90
16321;DHT22;8269;50.990;4.494;2022-12-20T06:04:01;10.70;99.90
16321;DHT22;8269;50.990;4.494;2022-12-20T06:06:27;10.60;99.90
16321;DHT22;8269;50.990;4.494;2022-12-20T06:08:57;10.70;99.90
16321;DHT22;8269;50.990;4.494;2022-12-20T06:11:23;10.80;99.90
16321;DHT22;8269;50.990;4.494;2022-12-20T06:13:50;10.80;99.90
16321;DHT22;8269;50.990;4.494;2022-12-20T06:16:16;10.70;99.90
16321;DHT22;8269;50.990;4.494;2022-12-20T06:18:51;11.20;99.90
16321;DHT22;8269;50.990;4.494;2022-12-20T06:21:20;10.80;99.90
16321;DHT22;8269;50.990;4.494;2022-12-20T06:23:46;10.90;99.90
16321;DHT22;8269;50.990;4.494;2022-12-20T06:26:18;10.90;99.90
16321;DHT22;8269;50.990;4.494;2022-12-20T06:28:44;10.80;99.90
16321;DHT22;8269;50.990;4.494;2022-12-20T06:31:10;10.90;99.90
16321;DHT22;8269;50.990;4.494;2022-12-20T06:33:36;10.80;99.90
16321;DHT22;8269;50.990;4.494;2022-12-20T06:36:03;10.80;99.90
16321;DHT22;8269;50.990;4.494;2022-12-20T06:38:29;10.90;99.90
16321;DHT22;8269;50.990;4.494;2022-12-20T06:40:58;11.50;99.90
16321;DHT22;8269;50.990;4.494;2022-12-20T06:43:24;11.00;99.90
16321;DHT22;8269;50.990;4.494;2022-12-20T06:45:50;11.20;99.90
16321;DHT22;8269;50.990;4.494;2022-12-20T06:48:15;11.20;99.90
16321;DHT22;8269;50.990;4.494;2022-12-20T06:50:41;11.20;99.90
16321;DHT22;8269;50.990;4.494;2022-12-20T06:53:09;11.30;99.90
16321;DHT22;8269;50.990;4.494;2022-12-20T06:55:34;11.30;99.90
16321;DHT22;8269;50.990;4.494;2022-12-20T06:58:02;11.20;99.90
16321;DHT22;8269;50.990;4.494;2022-12-20T07:00:27;11.20;99.90
16321;DHT22;8269;50.990;4.494;2022-12-20T07:02:53;11.30;99.90
16321;DHT22;8269;50.990;4.494;2022-12-20T07:05:19;11.50;99.90
16321;DHT22;8269;50.990;4.494;2022-12-20T07:07:44;11.30;99.90
16321;DHT22;8269;50.990;4.494;2022-12-20T07:10:10;11.30;99.90
16321;DHT22;8269;50.990;4.494;2022-12-20T07:12:35;11.40;99.90
16321;DHT22;8269;50.990;4.494;2022-12-20T07:15:01;11.40;99.90
16321;DHT22;8269;50.990;4.494;2022-12-20T07:17:28;11.30;99.90
16321;DHT22;8269;50.990;4.494;2022-12-20T07:19:55;11.40;99.90
16321;DHT22;8269;50.990;4.494;2022-12-20T07:22:21;11.30;99.90
16321;DHT22;8269;50.990;4.494;2022-12-20T07:24:46;11.40;99.90
16321;DHT22;8269;50.990;4.494;2022-12-20T07:27:12;11.40;99.90
16321;DHT22;8269;50.990;4.494;2022-12-20T07:29:38;11.40;99.90
16321;DHT22;8269;50.990;4.494;2022-12-20T07:32:06;11.50;99.90
16321;DHT22;8269;50.990;4.494;2022-12-20T07:34:32;11.50;99.90
16321;DHT22;8269;50.990;4.494;2022-12-20T07:36:58;11.40;99.90
16321;DHT22;8269;50.990;4.494;2022-12-20T07:39:23;11.30;99.90
16321;DHT22;8269;50.990;4.494;2022-12-20T07:41:53;11.30;99.90
16321;DHT22;8269;50.990;4.494;2022-12-20T07:44:20;11.30;99.90
16321;DHT22;8269;50.990;4.494;2022-12-20T07:46:45;11.20;99.90
16321;DHT22;8269;50.990;4.494;2022-12-20T07:49:12;11.10;99.90
16321;DHT22;8269;50.990;4.494;2022-12-20T07:51:42;11.00;99.90
16321;DHT22;8269;50.990;4.494;2022-12-20T07:54:35;10.90;99.90
16321;DHT22;8269;50.990;4.494;2022-12-20T07:57:05;10.80;99.90
16321;DHT22;8269;50.990;4.494;2022-12-20T07:59:42;10.70;99.90
16321;DHT22;8269;50.990;4.494;2022-12-20T08:02:16;10.70;99.90
16321;DHT22;8269;50.990;4.494;2022-12-20T08:04:43;10.60;99.90
16321;DHT22;8269;50.990;4.494;2022-12-20T08:07:10;10.50;99.90
16321;DHT22;8269;50.990;4.494;2022-12-20T08:09:39;10.50;99.90
16321;DHT22;8269;50.990;4.494;2022-12-20T08:12:07;10.50;99.90
16321;DHT22;8269;50.990;4.494;2022-12-20T08:14:35;10.50;99.90
16321;DHT22;8269;50.990;4.494;2022-12-20T08:17:00;10.50;99.90
16321;DHT22;8269;50.990;4.494;2022-12-20T08:19:26;10.50;99.90
16321;DHT22;8269;50.990;4.494;2022-12-20T08:21:52;10.50;99.90
16321;DHT22;8269;50.990;4.494;2022-12-20T08:24:17;10.50;99.90
16321;DHT22;8269;50.990;4.494;2022-12-20T08:26:44;10.60;99.90
16321;DHT22;8269;50.990;4.494;2022-12-20T08:29:10;10.50;99.90
16321;DHT22;8269;50.990;4.494;2022-12-20T08:31:40;10.50;99.90
16321;DHT22;8269;50.990;4.494;2022-12-20T08:34:07;10.50;99.90
16321;DHT22;8269;50.990;4.494;2022-12-20T08:36:32;10.50;99.90
16321;DHT22;8269;50.990;4.494;2022-12-20T08:39:05;10.50;99.90
16321;DHT22;8269;50.990;4.494;2022-12-20T08:41:33;10.50;99.90
16321;DHT22;8269;50.990;4.494;2022-12-20T08:43:59;10.50;99.90
16321;DHT22;8269;50.990;4.494;2022-12-20T08:46:25;10.50;99.90
16321;DHT22;8269;50.990;4.494;2022-12-20T08:48:51;10.50;99.90
16321;DHT22;8269;50.990;4.494;2022-12-20T08:51:16;10.50;99.90
16321;DHT22;8269;50.990;4.494;2022-12-20T08:53:42;10.60;99.90
16321;DHT22;8269;50.990;4.494;2022-12-20T08:56:12;10.50;99.90
16321;DHT22;8269;50.990;4.494;2022-12-20T08:58:39;10.60;99.90
16321;DHT22;8269;50.990;4.494;2022-12-20T09:01:07;10.60;99.90
16321;DHT22;8269;50.990;4.494;2022-12-20T09:03:34;10.60;99.90
16321;DHT22;8269;50.990;4.494;2022-12-20T09:06:00;10.70;99.90
16321;DHT22;8269;50.990;4.494;2022-12-20T09:08:26;10.70;99.90
16321;DHT22;8269;50.990;4.494;2022-12-20T09:10:52;10.80;99.90
16321;DHT22;8269;50.990;4.494;2022-12-20T09:13:18;10.70;99.90
16321;DHT22;8269;50.990;4.494;2022-12-20T09:15:44;10.80;99.90
16321;DHT22;8269;50.990;4.494;2022-12-20T09:18:10;10.80;99.90
16321;DHT22;8269;50.990;4.494;2022-12-20T09:20:41;10.80;99.90
16321;DHT22;8269;50.990;4.494;2022-12-20T09:23:09;10.80;99.90
16321;DHT22;8269;50.990;4.494;2022-12-20T09:25:35;10.70;99.90
16321;DHT22;8269;50.990;4.494;2022-12-20T09:28:03;10.60;99.90
16321;DHT22;8269;50.990;4.494;2022-12-20T09:30:29;10.60;99.90
16321;DHT22;8269;50.990;4.494;2022-12-20T09:32:55;10.50;99.90
16321;DHT22;8269;50.990;4.494;2022-12-20T09:35:22;10.50;99.90
16321;DHT22;8269;50.990;4.494;2022-12-20T09:37:48;10.50;99.90
16321;DHT22;8269;50.990;4.494;2022-12-20T09:40:21;10.50;99.90
16321;DHT22;8269;50.990;4.494;2022-12-20T09:42:49;10.50;99.90
16321;DHT22;8269;50.990;4.494;2022-12-20T09:45:29;10.60;99.90
16321;DHT22;8269;50.990;4.494;2022-12-20T09:47:56;10.70;99.90
16321;DHT22;8269;50.990;4.494;2022-12-20T09:50:57;10.70;99.90
16321;DHT22;8269;50.990;4.494;2022-12-20T09:53:47;10.70;99.90
16321;DHT22;8269;50.990;4.494;2022-12-20T09:56:22;10.70;99.90
16321;DHT22;8269;50.990;4.494;2022-12-20T09:59:03;10.80;99.90
16321;DHT22;8269;50.990;4.494;2022-12-20T10:01:32;10.80;99.90
16321;DHT22;8269;50.990;4.494;2022-12-20T10:04:05;10.80;99.90
16321;DHT22;8269;50.990;4.494;2022-12-20T10:07:06;10.70;99.90
16321;DHT22;8269;50.990;4.494;2022-12-20T10:12:31;10.70;99.90
16321;DHT22;8269;50.990;4.494;2022-12-20T10:15:21;10.70;99.90
16321;DHT22;8269;50.990;4.494;2022-12-20T10:23:15;10.70;99.90
16321;DHT22;8269;50.990;4.494;2022-12-20T10:25:42;10.70;99.90
16321;DHT22;8269;50.990;4.494;2022-12-20T10:28:16;10.70;99.90
16321;DHT22;8269;50.990;4.494;2022-12-20T10:30:42;10.70;99.90
16321;DHT22;8269;50.990;4.494;2022-12-20T10:33:18;10.70;99.90
16321;DHT22;8269;50.990;4.494;2022-12-20T10:35:44;10.70;99.90
16321;DHT22;8269;50.990;4.494;2022-12-20T10:38:12;10.70;99.90
16321;DHT22;8269;50.990;4.494;2022-12-20T10:40:41;10.70;99.90
16321;DHT22;8269;50.990;4.494;2022-12-20T10:43:19;10.60;99.90
16321;DHT22;8269;50.990;4.494;2022-12-20T10:45:55;10.60;99.90
16321;DHT22;8269;50.990;4.494;2022-12-20T10:51:00;10.70;99.90
16321;DHT22;8269;50.990;4.494;2022-12-20T10:53:26;10.70;99.90
16321;DHT22;8269;50.990;4.494;2022-12-20T10:56:03;10.70;99.90
16321;DHT22;8269;50.990;4.494;2022-12-20T10:58:34;10.70;99.90
16321;DHT22;8269;50.990;4.494;2022-12-20T11:01:18;10.70;99.90
16321;DHT22;8269;50.990;4.494;2022-12-20T11:09:35;10.70;99.90
16321;DHT22;8269;50.990;4.494;2022-12-20T11:12:16;10.70;99.90
16321;DHT22;8269;50.990;4.494;2022-12-20T11:14:43;10.70;99.90
16321;DHT22;8269;50.990;4.494;2022-12-20T11:17:38;10.70;99.90
16321;DHT22;8269;50.990;4.494;2022-12-20T11:32:02;10.60;99.90
16321;DHT22;8269;50.990;4.494;2022-12-20T11:37:29;10.60;99.90
16321;DHT22;8269;50.990;4.494;2022-12-20T11:40:02;10.50;99.90
16321;DHT22;8269;50.990;4.494;2022-12-20T11:45:24;10.50;99.90
16321;DHT22;8269;50.990;4.494;2022-12-20T11:50:47;10.40;99.90
16321;DHT22;8269;50.990;4.494;2022-12-20T11:53:38;10.50;99.90
16321;DHT22;8269;50.990;4.494;2022-12-20T11:56:13;10.50;99.90
16321;DHT22;8269;50.990;4.494;2022-12-20T11:58:59;10.50;99.90
16321;DHT22;8269;50.990;4.494;2022-12-20T12:01:43;10.40;99.90
16321;DHT22;8269;50.990;4.494;2022-12-20T12:04:20;10.60;99.90
16321;DHT22;8269;50.990;4.494;2022-12-20T12:09:41;10.50;99.90
16321;DHT22;8269;50.990;4.494;2022-12-20T12:12:17;10.40;99.90
16321;DHT22;8269;50.990;4.494;2022-12-20T12:15:02;10.40;99.90
16321;DHT22;8269;50.990;4.494;2022-12-20T12:18:15;10.40;99.90
16321;DHT22;8269;50.990;4.494;2022-12-20T12:21:24;10.40;99.90
16321;DHT22;8269;50.990;4.494;2022-12-20T12:26:38;10.40;99.90
16321;DHT22;8269;50.990;4.494;2022-12-20T12:29:16;10.40;99.90
16321;DHT22;8269;50.990;4.494;2022-12-20T12:31:55;10.40;99.90
16321;DHT22;8269;50.990;4.494;2022-12-20T12:34:59;10.30;99.90
16321;DHT22;8269;50.990;4.494;2022-12-20T12:37:54;10.20;99.90
16321;DHT22;8269;50.990;4.494;2022-12-20T12:43:39;10.20;99.90
16321;DHT22;8269;50.990;4.494;2022-12-20T12:46:28;10.20;99.90
16321;DHT22;8269;50.990;4.494;2022-12-20T12:49:10;10.20;99.90
16321;DHT22;8269;50.990;4.494;2022-12-20T12:51:42;10.20;99.90
16321;DHT22;8269;50.990;4.494;2022-12-20T12:54:41;10.20;99.90
16321;DHT22;8269;50.990;4.494;2022-12-20T12:57:20;10.20;99.90
16321;DHT22;8269;50.990;4.494;2022-12-20T12:59:49;10.30;99.90
16321;DHT22;8269;50.990;4.494;2022-12-20T13:17:56;10.00;99.90
16321;DHT22;8269;50.990;4.494;2022-12-20T13:20:29;10.00;99.90
16321;DHT22;8269;50.990;4.494;2022-12-20T13:31:32;10.00;99.90
16321;DHT22;8269;50.990;4.494;2022-12-20T13:38:49;10.00;99.90
16321;DHT22;8269;50.990;4.494;2022-12-20T13:41:34;10.00;99.90
16321;DHT22;8269;50.990;4.494;2022-12-20T13:44:27;10.00;99.90
16321;DHT22;8269;50.990;4.494;2022-12-20T13:47:05;10.00;99.90
16321;DHT22;8269;50.990;4.494;2022-12-20T13:49:40;10.00;99.90
16321;DHT22;8269;50.990;4.494;2022-12-20T13:52:21;10.00;99.90
16321;DHT22;8269;50.990;4.494;2022-12-20T13:54:52;10.00;99.90
16321;DHT22;8269;50.990;4.494;2022-12-20T13:57:38;10.00;99.90
16321;DHT22;8269;50.990;4.494;2022-12-20T14:00:11;10.00;99.90
16321;DHT22;8269;50.990;4.494;2022-12-20T14:02:40;10.00;99.90
16321;DHT22;8269;50.990;4.494;2022-12-20T14:05:17;10.00;99.90
16321;DHT22;8269;50.990;4.494;2022-12-20T14:07:55;10.00;99.90
16321;DHT22;8269;50.990;4.494;2022-12-20T14:10:24;10.00;99.90
16321;DHT22;8269;50.990;4.494;2022-12-20T14:12:52;10.10;99.90
16321;DHT22;8269;50.990;4.494;2022-12-20T14:17:47;10.00;99.90
16321;DHT22;8269;50.990;4.494;2022-12-20T14:20:30;10.00;99.90
16321;DHT22;8269;50.990;4.494;2022-12-20T14:23:03;10.00;99.90
16321;DHT22;8269;50.990;4.494;2022-12-20T14:25:57;10.00;99.90
16321;DHT22;8269;50.990;4.494;2022-12-20T14:28:33;10.00;99.90
16321;DHT22;8269;50.990;4.494;2022-12-20T14:31:00;10.00;99.90
16321;DHT22;8269;50.990;4.494;2022-12-20T14:33:37;10.00;99.90
16321;DHT22;8269;50.990;4.494;2022-12-20T14:36:19;10.10;99.90
16321;DHT22;8269;50.990;4.494;2022-12-20T14:38:47;10.10;99.90
16321;DHT22;8269;50.990;4.494;2022-12-20T14:41:33;10.20;99.90
16321;DHT22;8269;50.990;4.494;2022-12-20T14:44:15;10.10;99.90
16321;DHT22;8269;50.990;4.494;2022-12-20T14:46:55;10.10;99.90
16321;DHT22;8269;50.990;4.494;2022-12-20T14:49:27;9.90;99.90
16321;DHT22;8269;50.990;4.494;2022-12-20T14:52:15;10.10;99.90
16321;DHT22;8269;50.990;4.494;2022-12-20T14:57:37;10.10;99.90
16321;DHT22;8269;50.990;4.494;2022-12-20T15:08:29;10.10;99.90
16321;DHT22;8269;50.990;4.494;2022-12-20T15:13:31;10.10;99.90
16321;DHT22;8269;50.990;4.494;2022-12-20T15:15:58;10.10;99.90
16321;DHT22;8269;50.990;4.494;2022-12-20T15:18:25;10.10;99.90
16321;DHT22;8269;50.990;4.494;2022-12-20T15:21:00;10.10;99.90
16321;DHT22;8269;50.990;4.494;2022-12-20T15:23:46;10.20;99.90
16321;DHT22;8269;50.990;4.494;2022-12-20T15:26:17;10.10;99.90
16321;DHT22;8269;50.990;4.494;2022-12-20T15:28:44;10.00;99.90
16321;DHT22;8269;50.990;4.494;2022-12-20T15:31:11;10.00;99.90
16321;DHT22;8269;50.990;4.494;2022-12-20T15:33:39;10.00;99.90
16321;DHT22;8269;50.990;4.494;2022-12-20T15:36:05;10.00;99.90
16321;DHT22;8269;50.990;4.494;2022-12-20T15:38:31;10.00;99.90
16321;DHT22;8269;50.990;4.494;2022-12-20T15:41:07;10.00;99.90
16321;DHT22;8269;50.990;4.494;2022-12-20T15:43:37;10.00;99.90
16321;DHT22;8269;50.990;4.494;2022-12-20T15:46:03;9.90;99.90
16321;DHT22;8269;50.990;4.494;2022-12-20T15:48:29;9.90;99.90
16321;DHT22;8269;50.990;4.494;2022-12-20T15:50:57;9.90;99.90
16321;DHT22;8269;50.990;4.494;2022-12-20T15:53:25;9.90;99.90
16321;DHT22;8269;50.990;4.494;2022-12-20T15:55:53;9.90;99.90
16321;DHT22;8269;50.990;4.494;2022-12-20T15:58:19;9.90;99.90
16321;DHT22;8269;50.990;4.494;2022-12-20T16:00:45;9.90;99.90
16321;DHT22;8269;50.990;4.494;2022-12-20T16:03:29;9.90;99.90
16321;DHT22;8269;50.990;4.494;2022-12-20T16:05:56;9.80;99.90
16321;DHT22;8269;50.990;4.494;2022-12-20T16:08:23;9.90;99.90
16321;DHT22;8269;50.990;4.494;2022-12-20T16:10:51;9.90;99.90
16321;DHT22;8269;50.990;4.494;2022-12-20T16:13:22;9.90;99.90
16321;DHT22;8269;50.990;4.494;2022-12-20T16:15:50;9.90;99.90
16321;DHT22;8269;50.990;4.494;2022-12-20T16:18:16;9.90;99.90
16321;DHT22;8269;50.990;4.494;2022-12-20T16:20:42;9.90;99.90
16321;DHT22;8269;50.990;4.494;2022-12-20T16:23:18;9.90;99.90
16321;DHT22;8269;50.990;4.494;2022-12-20T16:25:47;9.90;99.90
16321;DHT22;8269;50.990;4.494;2022-12-20T16:28:12;9.90;99.90
16321;DHT22;8269;50.990;4.494;2022-12-20T16:30:38;9.90;99.90
16321;DHT22;8269;50.990;4.494;2022-12-20T16:33:04;9.80;99.90
16321;DHT22;8269;50.990;4.494;2022-12-20T16:37:58;9.80;99.90
16321;DHT22;8269;50.990;4.494;2022-12-20T16:40:27;9.80;99.90
16321;DHT22;8269;50.990;4.494;2022-12-20T16:42:53;9.80;99.90
16321;DHT22;8269;50.990;4.494;2022-12-20T16:45:23;9.90;99.90
16321;DHT22;8269;50.990;4.494;2022-12-20T16:47:49;9.80;99.90
16321;DHT22;8269;50.990;4.494;2022-12-20T16:50:22;10.10;99.90
16321;DHT22;8269;50.990;4.494;2022-12-20T16:52:49;9.90;99.90
16321;DHT22;8269;50.990;4.494;2022-12-20T16:55:23;9.80;99.90
16321;DHT22;8269;50.990;4.494;2022-12-20T16:57:50;9.80;99.90
16321;DHT22;8269;50.990;4.494;2022-12-20T17:00:21;9.70;99.90
16321;DHT22;8269;50.990;4.494;2022-12-20T17:02:47;9.80;99.90
16321;DHT22;8269;50.990;4.494;2022-12-20T17:05:34;9.70;99.90
16321;DHT22;8269;50.990;4.494;2022-12-20T17:08:01;9.70;99.90
16321;DHT22;8269;50.990;4.494;2022-12-20T17:10:27;10.00;99.90
16321;DHT22;8269;50.990;4.494;2022-12-20T17:12:56;9.80;99.90
16321;DHT22;8269;50.990;4.494;2022-12-20T17:15:27;9.80;99.90
16321;DHT22;8269;50.990;4.494;2022-12-20T17:17:54;9.80;99.90
16321;DHT22;8269;50.990;4.494;2022-12-20T17:20:21;10.20;99.90
16321;DHT22;8269;50.990;4.494;2022-12-20T17:22:49;9.70;99.90
16321;DHT22;8269;50.990;4.494;2022-12-20T17:25:30;9.70;99.90
16321;DHT22;8269;50.990;4.494;2022-12-20T17:27:57;9.80;99.90
16321;DHT22;8269;50.990;4.494;2022-12-20T17:30:23;9.80;99.90
16321;DHT22;8269;50.990;4.494;2022-12-20T17:32:50;9.70;99.90
16321;DHT22;8269;50.990;4.494;2022-12-20T17:37:47;9.80;99.90
16321;DHT22;8269;50.990;4.494;2022-12-20T17:40:15;9.80;99.90
16321;DHT22;8269;50.990;4.494;2022-12-20T17:42:42;9.80;99.90
16321;DHT22;8269;50.990;4.494;2022-12-20T17:45:29;9.80;99.90
16321;DHT22;8269;50.990;4.494;2022-12-20T17:47:55;10.00;99.90
16321;DHT22;8269;50.990;4.494;2022-12-20T17:50:28;9.80;99.90
16321;DHT22;8269;50.990;4.494;2022-12-20T17:52:53;9.80;99.90
16321;DHT22;8269;50.990;4.494;2022-12-20T17:55:24;9.70;99.90
16321;DHT22;8269;50.990;4.494;2022-12-20T17:57:52;9.70;99.90
16321;DHT22;8269;50.990;4.494;2022-12-20T18:00:29;9.80;99.90
16321;DHT22;8269;50.990;4.494;2022-12-20T18:03:00;9.80;99.90
16321;DHT22;8269;50.990;4.494;2022-12-20T18:05:38;9.80;99.90